Terminal Aerodrome Forecast
Issued by NWS Springfield, MO

Home | Current Version | Previous Version | Text Only | Print | Product List | Glossary On
Versions: 1 2 3 4 5 6 7 8 9 10 11 12 13
000
FTUS43 KSGF 212320
TAFSGF
TAF
KSGF 212320Z 2200/2224 36013G24KT P6SM SKC
     FM220400 36012KT P6SM SKC
     FM220800 36008KT P6SM SKC
     FM221500 03008KT P6SM SKC
     FM221800 02004KT P6SM SKC=

USA.gov is the U.S. government's official web portal to all federal, state and local government web resources and services.